createdAt,value
2018-12-12T00:03:05.041Z,86.17
2018-12-12T00:08:08.253Z,86.04
2018-12-12T00:13:11.413Z,86.27
2018-12-12T00:18:14.625Z,85.32
2018-12-12T00:23:17.764Z,86.07
2018-12-12T00:28:20.930Z,86.19
2018-12-12T00:33:24.086Z,86.17
2018-12-12T00:38:27.315Z,85.41
2018-12-12T00:43:34.208Z,85.93
2018-12-12T00:48:37.406Z,85.37
2018-12-12T00:53:40.528Z,86.24
2018-12-12T00:58:43.661Z,86.18
2018-12-12T01:03:46.858Z,86.72
2018-12-12T01:08:50.034Z,86.37
2018-12-12T01:13:53.226Z,86.87
2018-12-12T01:18:56.373Z,85.84
2018-12-12T01:24:00.521Z,86.58
2018-12-12T01:29:03.689Z,86.00
2018-12-12T01:34:06.846Z,85.90
2018-12-12T01:39:10.000Z,86.06
2018-12-12T01:44:13.138Z,85.88
2018-12-12T01:49:16.304Z,85.95
2018-12-12T01:54:19.436Z,85.87
2018-12-12T01:59:22.921Z,86.30
2018-12-12T02:04:26.117Z,86.22
2018-12-12T02:09:30.173Z,85.55
2018-12-12T02:14:33.302Z,86.05
2018-12-12T02:19:37.090Z,85.47
2018-12-12T02:24:40.293Z,85.61
2018-12-12T02:29:43.372Z,86.25
2018-12-12T02:34:46.465Z,86.55
2018-12-12T02:39:49.734Z,86.22
2018-12-12T02:44:52.909Z,85.60
2018-12-12T02:49:56.061Z,85.77
2018-12-12T02:54:59.337Z,85.80
2018-12-12T03:00:02.654Z,86.27
2018-12-12T03:05:06.070Z,85.50
2018-12-12T03:10:09.203Z,84.14
2018-12-12T03:15:13.118Z,84.42
2018-12-12T03:20:16.266Z,84.51
2018-12-12T03:25:19.406Z,84.57
2018-12-12T03:30:22.498Z,84.62
2018-12-12T03:35:25.726Z,85.33
2018-12-12T03:45:42.463Z,84.57
2018-12-12T03:50:45.573Z,84.18
2018-12-12T03:55:48.681Z,84.63
2018-12-12T04:00:51.786Z,84.61
2018-12-12T04:05:54.866Z,84.19
2018-12-12T04:10:59.729Z,84.29
2018-12-12T04:16:02.818Z,84.64
2018-12-12T04:21:05.890Z,83.72
2018-12-12T04:26:08.940Z,85.03
2018-12-12T04:31:12.007Z,84.84
2018-12-12T04:36:15.161Z,85.85
2018-12-12T04:41:18.261Z,85.83
2018-12-12T04:46:21.444Z,86.63
2018-12-12T04:51:24.564Z,86.08
2018-12-12T04:56:27.710Z,86.77
2018-12-12T05:01:30.832Z,86.83
2018-12-12T05:06:33.911Z,86.07
2018-12-12T05:11:37.164Z,86.42
2018-12-12T05:16:40.293Z,85.67
2018-12-12T05:21:43.387Z,86.44
2018-12-12T05:26:47.120Z,85.81
2018-12-12T05:31:50.385Z,86.02
2018-12-12T05:36:56.414Z,86.48
2018-12-12T05:42:00.625Z,86.56
2018-12-12T05:47:03.738Z,86.68
2018-12-12T05:52:06.896Z,86.70
2018-12-12T05:57:10.037Z,86.10
2018-12-12T06:02:13.306Z,85.17
2018-12-12T06:07:16.489Z,85.34
2018-12-12T06:12:20.597Z,85.69
2018-12-12T06:17:23.728Z,85.12
2018-12-12T06:22:27.804Z,85.73
2018-12-12T06:27:30.910Z,85.46
2018-12-12T06:32:35.733Z,85.18
2018-12-12T06:37:39.021Z,85.47
2018-12-12T06:42:42.130Z,85.87
2018-12-12T06:47:45.237Z,85.71
2018-12-12T06:52:48.353Z,85.66
2018-12-12T06:57:51.519Z,84.57
2018-12-12T07:02:54.629Z,85.31
2018-12-12T07:07:57.728Z,86.06
2018-12-12T07:13:00.869Z,86.44
2018-12-12T07:18:03.991Z,85.61
2018-12-12T07:23:07.125Z,85.95
2018-12-12T07:28:10.253Z,85.63
2018-12-12T07:33:13.357Z,85.19
2018-12-12T07:38:16.446Z,85.86
2018-12-12T07:43:19.581Z,85.91
2018-12-12T07:48:22.749Z,85.12
2018-12-12T07:53:26.410Z,85.49
2018-12-12T07:58:29.596Z,85.93
2018-12-12T08:03:32.694Z,85.74
2018-12-12T08:08:36.696Z,86.42
2018-12-12T08:13:39.825Z,85.92
2018-12-12T08:18:43.128Z,86.17
2018-12-12T08:23:49.101Z,85.69
2018-12-12T08:28:52.209Z,86.34
2018-12-12T08:33:55.386Z,84.94
2018-12-12T08:38:58.505Z,85.01
2018-12-12T08:44:01.630Z,84.41
2018-12-12T08:49:04.800Z,83.94
2018-12-12T08:54:07.946Z,83.95
2018-12-12T08:59:11.050Z,84.27
2018-12-12T09:04:14.164Z,85.19
2018-12-12T09:09:17.338Z,84.80
2018-12-12T09:14:20.469Z,85.16
2018-12-12T09:19:23.592Z,84.09
2018-12-12T09:24:26.748Z,84.74
2018-12-12T09:29:29.923Z,84.44
2018-12-12T09:34:33.045Z,83.73
2018-12-12T09:39:36.156Z,83.73
2018-12-12T09:44:39.264Z,83.60
2018-12-12T09:49:42.404Z,81.91
2018-12-12T09:54:45.507Z,81.90
2018-12-12T09:59:49.352Z,82.21
2018-12-12T10:04:53.121Z,81.49
2018-12-12T10:09:56.277Z,81.87
2018-12-12T10:14:59.425Z,81.33
2018-12-12T10:20:02.606Z,80.77
2018-12-12T10:25:06.001Z,81.64
2018-12-12T10:30:09.264Z,81.30
2018-12-12T10:35:12.441Z,80.75
2018-12-12T10:40:15.648Z,80.29
2018-12-12T10:45:18.877Z,78.60
2018-12-12T10:50:22.011Z,78.22
2018-12-12T10:55:25.158Z,78.45
2018-12-12T11:00:29.006Z,78.74
2018-12-12T11:05:32.318Z,79.84
2018-12-12T11:10:35.722Z,80.17
2018-12-12T11:15:38.904Z,79.87
2018-12-12T11:20:42.098Z,79.56
2018-12-12T11:25:45.481Z,80.12
2018-12-12T11:30:48.664Z,79.63
2018-12-12T11:35:51.851Z,80.43
2018-12-12T11:40:54.981Z,80.48
2018-12-12T11:45:58.159Z,80.65
2018-12-12T11:51:01.338Z,80.23
2018-12-12T11:56:04.502Z,80.12
2018-12-12T12:01:08.561Z,79.58
2018-12-12T12:06:11.738Z,78.89
2018-12-12T12:11:15.770Z,78.35
2018-12-12T12:16:18.945Z,77.26
2018-12-12T12:21:22.093Z,76.69
2018-12-12T12:26:25.911Z,75.70
2018-12-12T12:31:29.268Z,75.83
2018-12-12T12:36:32.478Z,75.36
2018-12-12T12:41:35.626Z,75.42
2018-12-12T12:46:38.785Z,75.71
2018-12-12T12:51:41.939Z,76.28
2018-12-12T12:56:45.184Z,76.45
2018-12-12T13:01:48.313Z,76.10
2018-12-12T13:06:51.489Z,76.84
2018-12-12T13:11:54.687Z,76.48
2018-12-12T13:16:57.901Z,76.20
2018-12-12T13:22:01.092Z,77.02
2018-12-12T13:27:04.240Z,75.83
2018-12-12T13:32:07.377Z,76.74
2018-12-12T13:37:10.535Z,75.74
2018-12-12T13:42:13.832Z,76.40
2018-12-12T13:47:17.431Z,76.55
2018-12-12T13:52:20.856Z,77.24
2018-12-12T13:57:24.645Z,77.51
2018-12-12T14:02:27.981Z,77.51
2018-12-12T14:07:31.216Z,78.12
2018-12-12T14:12:34.365Z,76.05
2018-12-12T14:17:37.549Z,78.07
2018-12-12T14:22:40.677Z,78.78
2018-12-12T14:27:43.831Z,80.10
2018-12-12T14:32:47.066Z,78.81
2018-12-12T14:37:50.219Z,79.09
2018-12-12T14:42:53.403Z,78.88
2018-12-12T14:47:56.605Z,80.06
2018-12-12T14:52:59.744Z,80.38
2018-12-12T14:58:02.921Z,81.57
2018-12-12T15:03:06.085Z,81.43
2018-12-12T15:08:09.346Z,81.63
2018-12-12T15:13:12.645Z,81.90
2018-12-12T15:18:15.820Z,82.51
2018-12-12T15:23:18.998Z,82.45
2018-12-12T15:28:22.141Z,82.02
2018-12-12T15:33:25.384Z,82.69
2018-12-12T15:38:28.539Z,82.20
2018-12-12T15:43:31.786Z,82.65
2018-12-12T15:48:34.977Z,81.87
2018-12-12T15:53:38.160Z,81.92
2018-12-12T15:58:41.292Z,82.77
2018-12-12T16:03:44.447Z,82.95
2018-12-12T16:08:47.638Z,83.46
2018-12-12T16:13:50.896Z,83.52
2018-12-12T16:18:54.099Z,83.62
2018-12-12T16:23:57.331Z,82.88
2018-12-12T16:29:00.534Z,82.05
2018-12-12T16:34:04.593Z,80.91
2018-12-12T16:39:08.338Z,80.61
2018-12-12T16:44:11.510Z,80.22
2018-12-12T16:49:14.810Z,78.85
2018-12-12T16:54:18.019Z,78.08
2018-12-12T16:59:22.007Z,78.12
2018-12-12T17:04:25.233Z,78.89
2018-12-12T17:09:28.575Z,75.93
2018-12-12T17:14:31.781Z,75.50
2018-12-12T17:19:35.023Z,74.11
2018-12-12T17:24:38.286Z,74.32
2018-12-12T17:29:41.621Z,73.81
2018-12-12T17:34:44.868Z,73.14
2018-12-12T17:39:48.662Z,73.83
2018-12-12T17:44:52.027Z,74.09
2018-12-12T17:55:11.469Z,73.75
2018-12-12T18:00:14.839Z,73.89
2018-12-12T18:05:18.050Z,74.13
2018-12-12T18:10:21.327Z,72.69
2018-12-12T18:15:24.690Z,74.40
2018-12-12T18:20:28.028Z,73.30
2018-12-12T18:25:31.401Z,74.23
2018-12-12T18:30:35.009Z,74.37
2018-12-12T18:35:38.265Z,74.47
2018-12-12T18:40:41.565Z,75.93
2018-12-12T18:45:44.930Z,75.27
2018-12-12T18:50:48.326Z,76.00
2018-12-12T18:55:52.167Z,75.92
2018-12-12T19:00:56.274Z,75.39
2018-12-12T19:05:59.467Z,74.54
2018-12-12T19:11:02.757Z,75.17
2018-12-12T19:16:06.045Z,75.35
2018-12-12T19:21:09.349Z,75.33
2018-12-12T19:26:12.609Z,73.21
2018-12-12T19:31:15.879Z,74.79
2018-12-12T19:36:19.179Z,74.49
2018-12-12T19:41:22.464Z,74.94
2018-12-12T19:46:25.751Z,75.17
2018-12-12T19:51:29.074Z,75.91
2018-12-12T19:56:32.453Z,74.59
2018-12-12T20:01:35.705Z,75.85
2018-12-12T20:06:39.066Z,75.74
2018-12-12T20:11:42.564Z,75.35
2018-12-12T20:16:45.894Z,75.77
2018-12-12T20:21:49.198Z,76.23
2018-12-12T20:26:52.536Z,74.63
2018-12-12T20:31:55.888Z,76.41
2018-12-12T20:36:59.186Z,76.35
2018-12-12T20:42:03.518Z,76.19
2018-12-12T20:47:06.844Z,75.44
2018-12-12T20:52:10.157Z,76.54
2018-12-12T20:57:13.427Z,77.11
2018-12-12T21:02:16.710Z,76.51
2018-12-12T21:07:20.344Z,76.49
2018-12-12T21:12:23.800Z,76.84
2018-12-12T21:17:27.665Z,77.46
2018-12-12T21:22:30.898Z,76.83
2018-12-12T21:27:34.521Z,77.47
2018-12-12T21:32:38.508Z,77.88
2018-12-12T21:37:42.039Z,77.51
2018-12-12T21:42:46.717Z,77.71
2018-12-12T21:47:50.307Z,78.86
2018-12-12T21:52:53.529Z,78.69
2018-12-12T21:57:56.789Z,79.10
2018-12-12T22:03:00.265Z,77.98
2018-12-12T22:08:03.626Z,78.50
2018-12-12T22:13:07.262Z,78.56
2018-12-12T22:18:10.547Z,77.92
2018-12-12T22:23:13.770Z,77.92
2018-12-12T22:28:16.959Z,78.83
2018-12-12T22:33:20.250Z,78.75
2018-12-12T22:38:23.428Z,78.10
2018-12-12T22:43:26.667Z,78.60
2018-12-12T22:48:29.993Z,79.05
2018-12-12T22:53:33.206Z,79.41
2018-12-12T22:58:36.491Z,78.74
2018-12-12T23:03:39.993Z,78.37
2018-12-12T23:08:43.198Z,79.18
2018-12-12T23:13:46.424Z,78.81
2018-12-12T23:18:50.161Z,78.44
2018-12-12T23:23:54.160Z,78.83
2018-12-12T23:28:57.317Z,78.33
2018-12-12T23:34:00.509Z,78.40
2018-12-12T23:39:05.577Z,79.74
2018-12-12T23:44:08.782Z,78.81
2018-12-12T23:49:11.970Z,77.71
2018-12-12T23:54:15.168Z,78.94
2018-12-12T23:59:18.349Z,77.76
